createdAt,value
2019-05-11T00:00:15.366Z,122.3979
2019-05-11T00:00:27.246Z,144.3351
2019-05-11T00:00:36.915Z,133.0504
2019-05-11T00:00:45.428Z,133.2004
2019-05-11T00:00:57.480Z,133.0005
2019-05-11T00:01:17.088Z,133.0004
2019-05-11T00:01:26.793Z,125.2486
2019-05-11T00:01:36.489Z,111.6650
2019-05-11T00:01:46.265Z,105.4254
2019-05-11T00:01:55.964Z,138.9256
2019-05-11T00:02:16.516Z,152.4507
2019-05-11T00:02:26.258Z,156.6046
2019-05-11T00:02:36.026Z,151.9254
2019-05-11T00:02:45.756Z,174.6003
2019-05-11T00:02:55.456Z,160.8004
2019-05-11T00:03:07.287Z,158.1255
2019-05-11T00:03:17.029Z,159.1263
2019-05-11T00:03:26.667Z,158.9014
2019-05-11T00:03:37.370Z,157.9253
2019-05-11T00:03:47.112Z,158.6753
2019-05-11T00:03:56.812Z,158.6754
2019-05-11T00:04:06.484Z,158.4503
2019-05-11T00:04:16.198Z,158.3754
2019-05-11T00:04:26.870Z,158.5004
2019-05-11T00:04:36.555Z,158.5254
2019-05-11T00:04:46.282Z,159.2260
2019-05-11T00:04:55.958Z,150.6255
2019-05-11T00:05:05.646Z,141.4004
2019-05-11T00:05:17.525Z,141.3006
2019-05-11T00:05:27.192Z,136.7509
2019-05-11T00:05:36.882Z,135.9504
2019-05-11T00:05:46.582Z,136.6004
2019-05-11T00:05:57.296Z,102.4006
2019-05-11T00:06:06.986Z,119.6504
2019-05-11T00:06:16.661Z,121.3504
2019-05-11T00:06:37.449Z,119.6504
2019-05-11T00:06:47.325Z,119.8504
2019-05-11T00:06:57.025Z,120.9751
2019-05-11T00:07:05.795Z,119.5754
2019-05-11T00:07:15.486Z,127.7504
2019-05-11T00:07:27.322Z,127.8254
2019-05-11T00:07:37.066Z,127.9504
2019-05-11T00:07:46.804Z,140.9254
2019-05-11T00:07:56.623Z,151.8754
2019-05-11T00:08:07.538Z,152.0752
2019-05-11T00:08:17.226Z,142.8085
2019-05-11T00:08:25.758Z,226.0005
2019-05-11T00:08:35.476Z,214.5235
2019-05-11T00:08:47.332Z,224.8006
2019-05-11T00:08:56.029Z,223.9254
2019-05-11T00:09:05.720Z,223.8503
2019-05-11T00:09:15.395Z,170.3752
2019-05-11T00:09:27.249Z,167.9741
2019-05-11T00:09:36.923Z,117.6248
2019-05-11T00:09:57.608Z,116.5254
2019-05-11T00:09:58.542Z,116.8004
2019-05-11T00:10:06.247Z,116.5254
2019-05-11T00:10:15.936Z,116.7004
2019-05-11T00:10:25.913Z,116.8754
2019-05-11T00:10:35.566Z,116.6504
2019-05-11T00:10:47.414Z,116.5504
2019-05-11T00:10:57.098Z,116.2754
2019-05-11T00:11:06.757Z,116.6755
2019-05-11T00:11:16.424Z,117.5500
2019-05-11T00:11:26.104Z,116.6754
2019-05-11T00:11:35.868Z,116.4754
2019-05-11T00:11:46.631Z,116.4254
2019-05-11T00:11:56.359Z,116.5254
2019-05-11T00:12:06.669Z,116.7255
2019-05-11T00:12:19.690Z,116.4005
2019-05-11T00:12:27.950Z,116.7504
2019-05-11T00:12:36.529Z,116.7504
2019-05-11T00:12:47.317Z,116.4754
2019-05-11T00:12:56.171Z,116.7504
2019-05-11T00:13:06.941Z,116.7504
2019-05-11T00:13:16.752Z,116.5754
2019-05-11T00:13:26.311Z,116.4754
2019-05-11T00:13:37.124Z,117.0260
2019-05-11T00:13:46.961Z,116.6504
2019-05-11T00:13:56.774Z,148.9757
2019-05-11T00:14:06.522Z,168.3011
2019-05-11T00:14:16.282Z,179.7004
2019-05-11T00:14:25.871Z,175.0754
2019-05-11T00:14:35.660Z,175.0254
2019-05-11T00:14:45.474Z,175.1754
2019-05-11T00:14:56.290Z,170.7254
2019-05-11T00:15:07.049Z,170.7504
2019-05-11T00:15:15.973Z,170.6754
2019-05-11T00:15:26.801Z,170.8503
2019-05-11T00:15:36.568Z,130.7504
2019-05-11T00:15:46.343Z,147.0256
2019-05-11T00:16:01.486Z,146.8504
2019-05-11T00:16:06.661Z,146.3504
2019-05-11T00:16:19.062Z,146.9754
2019-05-11T00:16:26.773Z,149.1254
2019-05-11T00:16:36.463Z,146.7754
2019-05-11T00:16:46.201Z,147.3512
2019-05-11T00:16:55.924Z,146.9756
2019-05-11T00:17:05.637Z,146.8754
2019-05-11T00:17:15.364Z,148.7003
2019-05-11T00:17:27.201Z,202.8504
2019-05-11T00:17:36.864Z,199.6254
2019-05-11T00:17:46.593Z,200.0747
2019-05-11T00:17:56.255Z,200.0004
2019-05-11T00:18:05.997Z,253.6514
2019-05-11T00:18:16.706Z,233.3004
2019-05-11T00:18:25.393Z,208.6396
2019-05-11T00:18:37.522Z,187.1756
2019-05-11T00:18:47.233Z,111.8254
2019-05-11T00:18:56.974Z,109.7254
2019-05-11T00:19:06.684Z,92.6004
2019-05-11T00:19:16.381Z,87.8737
2019-05-11T00:19:26.109Z,92.6504
2019-05-11T00:19:35.892Z,92.5255
2019-05-11T00:19:45.594Z,92.5754
2019-05-11T00:19:56.263Z,92.5506
2019-05-11T00:20:05.801Z,105.6007
2019-05-11T00:20:15.527Z,109.5254
2019-05-11T00:20:27.426Z,111.8255
2019-05-11T00:20:37.355Z,113.2254
2019-05-11T00:20:47.054Z,119.4754
2019-05-11T00:20:56.745Z,119.1504
2019-05-11T00:21:06.450Z,119.2754
2019-05-11T00:21:16.212Z,119.7754
2019-05-11T00:21:27.149Z,120.3242
2019-05-11T00:21:36.870Z,145.4447
2019-05-11T00:21:46.649Z,155.2755
2019-05-11T00:21:57.359Z,135.1254
2019-05-11T00:22:07.139Z,180.8252
2019-05-11T00:22:16.876Z,184.9004
2019-05-11T00:22:26.872Z,184.5254
2019-05-11T00:22:36.550Z,175.2257
2019-05-11T00:22:46.245Z,151.2406
2019-05-11T00:22:55.943Z,143.4438
2019-05-11T00:23:05.671Z,162.5676
2019-05-11T00:23:17.523Z,160.7504
2019-05-11T00:23:27.349Z,159.0753
2019-05-11T00:23:37.075Z,137.1505
2019-05-11T00:23:46.783Z,120.2754
2019-05-11T00:23:56.678Z,133.3254
2019-05-11T00:24:06.383Z,182.0003
2019-05-11T00:24:17.045Z,177.3004
2019-05-11T00:24:29.192Z,177.5255
2019-05-11T00:24:35.582Z,203.4505
2019-05-11T00:24:56.107Z,167.2423
2019-05-11T00:25:06.941Z,128.1271
2019-05-11T00:25:16.595Z,208.5514
2019-05-11T00:25:26.391Z,217.6004
2019-05-11T00:25:36.314Z,216.9004
2019-05-11T00:25:46.278Z,217.0754
2019-05-11T00:25:55.977Z,217.0002
2019-05-11T00:26:05.945Z,216.6504
2019-05-11T00:26:15.613Z,217.4507
2019-05-11T00:26:26.501Z,216.7254
2019-05-11T00:26:36.207Z,117.9646
2019-05-11T00:26:46.887Z,146.9504
2019-05-11T00:26:56.544Z,146.9504
2019-05-11T00:27:17.091Z,188.2004
2019-05-11T00:27:26.803Z,188.1254
2019-05-11T00:27:36.477Z,187.6504
2019-05-11T00:27:46.214Z,145.9504
2019-05-11T00:27:56.000Z,122.1005
2019-05-11T00:28:05.851Z,123.5504
2019-05-11T00:28:26.373Z,123.2504
2019-05-11T00:28:37.255Z,124.7754
2019-05-11T00:28:50.158Z,153.0430
2019-05-11T00:28:57.024Z,146.2004
2019-05-11T00:29:06.708Z,146.4756
2019-05-11T00:29:26.136Z,146.3004
2019-05-11T00:29:37.125Z,140.9002
2019-05-11T00:29:45.812Z,159.6710
2019-05-11T00:29:55.568Z,135.7093
2019-05-11T00:30:26.837Z,125.2506
2019-05-11T00:30:36.532Z,125.5255
2019-05-11T00:30:46.221Z,192.4765
2019-05-11T00:30:55.912Z,190.7504
2019-05-11T00:31:05.623Z,192.9753
2019-05-11T00:31:17.479Z,190.5256
2019-05-11T00:31:27.180Z,190.6504
2019-05-11T00:31:36.882Z,190.1254
2019-05-11T00:31:46.590Z,156.0004
2019-05-11T00:31:56.276Z,162.2749
2019-05-11T00:32:07.157Z,156.6003
2019-05-11T00:32:17.115Z,155.2254
2019-05-11T00:32:26.751Z,154.8504
2019-05-11T00:32:36.437Z,264.4254
2019-05-11T00:32:46.179Z,264.5254
2019-05-11T00:32:57.083Z,263.7257
2019-05-11T00:33:06.733Z,221.0430
2019-05-11T00:33:16.453Z,177.7739
2019-05-11T00:33:26.153Z,117.8753
2019-05-11T00:33:35.843Z,57.4466
2019-05-11T00:33:45.562Z,66.3017
2019-05-11T00:33:58.576Z,105.2254
2019-05-11T00:34:05.510Z,165.6004
2019-05-11T00:34:18.325Z,165.3504
2019-05-11T00:34:25.806Z,166.0753
2019-05-11T00:34:35.505Z,174.3507
2019-05-11T00:34:47.376Z,174.5754
2019-05-11T00:34:57.087Z,174.4502
2019-05-11T00:35:06.735Z,174.8254
2019-05-11T00:35:16.413Z,164.1504
2019-05-11T00:35:27.117Z,163.9255
2019-05-11T00:35:35.615Z,127.6504
2019-05-11T00:35:47.466Z,125.2254
2019-05-11T00:35:57.186Z,140.2912
2019-05-11T00:36:06.914Z,150.3255
2019-05-11T00:36:16.634Z,150.0754
2019-05-11T00:36:26.355Z,208.1255
2019-05-11T00:36:37.035Z,203.4273
2019-05-11T00:36:52.257Z,135.7004
2019-05-11T00:36:57.204Z,135.1004
2019-05-11T00:37:06.899Z,135.1506
2019-05-11T00:37:16.887Z,168.0004
2019-05-11T00:37:26.585Z,185.3754
2019-05-11T00:37:36.245Z,187.1232
2019-05-11T00:37:45.989Z,182.9754
2019-05-11T00:37:55.663Z,183.0254
2019-05-11T00:38:07.498Z,183.2255
2019-05-11T00:38:17.187Z,182.9755
2019-05-11T00:38:26.876Z,185.9255
2019-05-11T00:38:36.568Z,185.9254
2019-05-11T00:38:46.264Z,181.6504
2019-05-11T00:38:55.928Z,181.5504
2019-05-11T00:39:05.645Z,181.5254
2019-05-11T00:39:17.518Z,181.3754
2019-05-11T00:39:27.167Z,181.5252
2019-05-11T00:39:36.886Z,181.4754
2019-05-11T00:39:46.557Z,181.5504
2019-05-11T00:39:56.214Z,178.0004
2019-05-11T00:40:14.267Z,180.2501
2019-05-11T00:40:16.215Z,179.3020
2019-05-11T00:40:27.070Z,177.3754
2019-05-11T00:40:35.593Z,179.3518
2019-05-11T00:40:45.666Z,177.7003
2019-05-11T00:40:55.400Z,177.8506
2019-05-11T00:41:07.246Z,177.4504
2019-05-11T00:41:16.067Z,177.3254
2019-05-11T00:41:25.810Z,177.5254
2019-05-11T00:41:36.544Z,177.4004
2019-05-11T00:41:46.294Z,177.3004
2019-05-11T00:41:55.964Z,177.7004
2019-05-11T00:42:05.724Z,177.0754
2019-05-11T00:42:16.724Z,177.6252
2019-05-11T00:42:26.404Z,177.7504
2019-05-11T00:42:36.091Z,177.2754
2019-05-11T00:42:45.798Z,177.7004
2019-05-11T00:42:55.500Z,177.4254
2019-05-11T00:43:06.310Z,179.6241
2019-05-11T00:43:17.531Z,177.6504
2019-05-11T00:43:26.260Z,177.4754
2019-05-11T00:43:35.938Z,220.8504
2019-05-11T00:43:45.623Z,194.5001
2019-05-11T00:43:57.451Z,195.3517
2019-05-11T00:44:07.094Z,165.9044
2019-05-11T00:44:15.776Z,144.1754
2019-05-11T00:44:25.531Z,144.5754
2019-05-11T00:44:37.399Z,144.1504
2019-05-11T00:44:47.468Z,126.3254
2019-05-11T00:44:57.184Z,126.3004
2019-05-11T00:45:07.131Z,126.0503
2019-05-11T00:45:15.842Z,128.4502
2019-05-11T00:45:35.364Z,126.3254
2019-05-11T00:45:47.257Z,162.5254
2019-05-11T00:45:56.982Z,162.6254
2019-05-11T00:46:06.708Z,162.4504
2019-05-11T00:46:16.377Z,162.5754
2019-05-11T00:46:26.079Z,162.7004
2019-05-11T00:46:35.765Z,162.6254
2019-05-11T00:46:45.472Z,162.8005
2019-05-11T00:46:57.337Z,162.8754
2019-05-11T00:47:05.853Z,162.2754
2019-05-11T00:47:15.536Z,161.9754
2019-05-11T00:47:26.238Z,162.4253
2019-05-11T00:47:35.941Z,144.3254
2019-05-11T00:47:51.302Z,143.1255
2019-05-11T00:47:56.009Z,131.9601
2019-05-11T00:48:05.662Z,119.3504
2019-05-11T00:48:17.521Z,117.3504
2019-05-11T00:48:26.196Z,119.2203
2019-05-11T00:48:35.896Z,145.5255
2019-05-11T00:48:45.648Z,167.5504
2019-05-11T00:48:57.512Z,155.0254
2019-05-11T00:49:07.224Z,158.4257
2019-05-11T00:49:16.926Z,164.6004
2019-05-11T00:49:25.601Z,166.5255
2019-05-11T00:49:37.477Z,166.5004
2019-05-11T00:49:47.165Z,169.0250
2019-05-11T00:49:56.823Z,169.5754
2019-05-11T00:50:06.515Z,169.6004
2019-05-11T00:50:17.392Z,169.6996
2019-05-11T00:50:38.929Z,169.7004
2019-05-11T00:50:39.701Z,169.8753
2019-05-11T00:50:45.370Z,124.7254
2019-05-11T00:50:57.232Z,125.5754
2019-05-11T00:51:06.918Z,125.5254
2019-05-11T00:51:16.578Z,125.4004
2019-05-11T00:51:26.272Z,125.2005
2019-05-11T00:51:35.932Z,127.3004
2019-05-11T00:51:45.641Z,125.6754
2019-05-11T00:51:55.603Z,125.3754
2019-05-11T00:52:07.491Z,127.1253
2019-05-11T00:52:17.181Z,125.6007
2019-05-11T00:52:26.864Z,125.7263
2019-05-11T00:52:37.667Z,125.9509
2019-05-11T00:52:45.689Z,125.5505
2019-05-11T00:53:07.207Z,125.3254
2019-05-11T00:53:17.049Z,125.3754
2019-05-11T00:53:26.168Z,125.6005
2019-05-11T00:53:35.906Z,125.6005
2019-05-11T00:53:46.842Z,125.7004
2019-05-11T00:53:56.548Z,125.5504
2019-05-11T00:54:06.248Z,125.3756
2019-05-11T00:54:15.973Z,125.5504
2019-05-11T00:54:25.712Z,202.4029
2019-05-11T00:54:35.397Z,201.0754
2019-05-11T00:54:47.267Z,200.2254
2019-05-11T00:54:56.975Z,200.1504
2019-05-11T00:55:06.909Z,199.2755
2019-05-11T00:55:16.620Z,197.2754
2019-05-11T00:55:26.329Z,196.3004
2019-05-11T00:55:36.048Z,195.7751
2019-05-11T00:55:45.747Z,181.3504
2019-05-11T00:55:56.519Z,180.3504
2019-05-11T00:56:06.185Z,178.1505
2019-05-11T00:56:15.905Z,178.2258
2019-05-11T00:56:25.595Z,177.2504
2019-05-11T00:56:37.480Z,170.3504
2019-05-11T00:56:47.218Z,170.4254
2019-05-11T00:56:56.946Z,170.6253
2019-05-11T00:57:06.647Z,170.4255
2019-05-11T00:57:16.569Z,170.3254
2019-05-11T00:57:26.553Z,166.5004
2019-05-11T00:57:36.273Z,166.6504
2019-05-11T00:57:45.977Z,166.9998
2019-05-11T00:57:55.705Z,166.5754
2019-05-11T00:58:05.420Z,166.6504
2019-05-11T00:58:17.301Z,208.4285
2019-05-11T00:58:27.400Z,242.5430
2019-05-11T00:58:37.097Z,210.8254
2019-05-11T00:58:50.804Z,206.9254
2019-05-11T00:58:56.426Z,198.2754
2019-05-11T00:59:19.818Z,198.4754
2019-05-11T00:59:21.662Z,198.4005
2019-05-11T00:59:26.686Z,200.5765
2019-05-11T00:59:36.363Z,191.1332
2019-05-11T00:59:46.161Z,120.7004
2019-05-11T00:59:55.844Z,120.9004
2019-05-11T01:00:06.500Z,121.0504
2019-05-11T01:00:16.196Z,120.6004
2019-05-11T01:00:25.859Z,241.4004
2019-05-11T01:00:35.524Z,242.4004
2019-05-11T01:00:47.374Z,237.9977
2019-05-11T01:01:05.803Z,236.4503
2019-05-11T01:01:16.500Z,236.4754
2019-05-11T01:01:26.184Z,236.8005
2019-05-11T01:01:35.859Z,236.7503
2019-05-11T01:01:45.782Z,236.4505
2019-05-11T01:02:05.499Z,194.4508
2019-05-11T01:02:17.399Z,166.2505
2019-05-11T01:02:26.103Z,166.1505
2019-05-11T01:02:35.860Z,169.8004
2019-05-11T01:02:45.571Z,170.2252
2019-05-11T01:03:06.147Z,161.8504
2019-05-11T01:03:15.829Z,160.9753
2019-05-11T01:03:25.591Z,160.8754
2019-05-11T01:03:36.472Z,160.9754
2019-05-11T01:03:55.983Z,161.1754
2019-05-11T01:04:05.720Z,161.2504
2019-05-11T01:04:15.574Z,161.3752
2019-05-11T01:04:27.516Z,172.8756
2019-05-11T01:04:37.235Z,176.6254
2019-05-11T01:04:46.924Z,176.7505
2019-05-11T01:04:55.649Z,177.5004
2019-05-11T01:05:07.546Z,172.3753
2019-05-11T01:05:17.267Z,172.3754
2019-05-11T01:05:26.948Z,134.6754
2019-05-11T01:05:36.672Z,134.4504
2019-05-11T01:05:46.405Z,179.0332
2019-05-11T01:06:16.637Z,195.0753
2019-05-11T01:06:26.325Z,188.0254
2019-05-11T01:06:36.074Z,148.2294
2019-05-11T01:06:45.805Z,114.0504
2019-05-11T01:06:55.535Z,113.5254
2019-05-11T01:07:07.479Z,114.3746
2019-05-11T01:07:17.195Z,113.4504
2019-05-11T01:07:30.188Z,113.6504
2019-05-11T01:07:36.849Z,114.0254
2019-05-11T01:07:45.384Z,113.8254
2019-05-11T01:08:05.863Z,113.9754
2019-05-11T01:08:15.544Z,115.6253
2019-05-11T01:08:25.657Z,113.5504
2019-05-11T01:08:37.489Z,113.6504
2019-05-11T01:08:47.189Z,125.9495
2019-05-11T01:08:56.859Z,174.9755
2019-05-11T01:09:05.515Z,131.0754
2019-05-11T01:09:16.417Z,130.1003
2019-05-11T01:09:26.280Z,129.9004
2019-05-11T01:09:36.074Z,129.9004
2019-05-11T01:09:45.773Z,131.4255
2019-05-11T01:09:55.447Z,131.1754
2019-05-11T01:10:21.872Z,131.1504
2019-05-11T01:10:23.669Z,131.2004
2019-05-11T01:10:41.150Z,130.8254
2019-05-11T01:10:42.006Z,131.2754
2019-05-11T01:10:46.360Z,131.3254
2019-05-11T01:10:56.060Z,131.3505
2019-05-11T01:11:05.707Z,131.6503
2019-05-11T01:11:15.409Z,131.3004
2019-05-11T01:11:27.293Z,109.7754
2019-05-11T01:11:36.956Z,129.8504
2019-05-11T01:11:47.620Z,144.7504
2019-05-11T01:11:58.287Z,145.0253
2019-05-11T01:12:05.779Z,143.2004
2019-05-11T01:12:15.529Z,143.2004
2019-05-11T01:12:27.430Z,144.8507
2019-05-11T01:12:37.181Z,143.2504
2019-05-11T01:12:46.888Z,143.1004
2019-05-11T01:12:56.537Z,143.0255
2019-05-11T01:13:07.217Z,116.6898
2019-05-11T01:13:16.948Z,237.2754
2019-05-11T01:13:26.809Z,236.4004
2019-05-11T01:13:36.504Z,104.4754
2019-05-11T01:13:46.221Z,124.1737
2019-05-11T01:13:55.935Z,172.2402
2019-05-11T01:14:05.658Z,160.3004
2019-05-11T01:14:18.616Z,192.8254
2019-05-11T01:14:26.180Z,192.3504
2019-05-11T01:14:35.895Z,192.2504
2019-05-11T01:14:45.608Z,192.7254
2019-05-11T01:14:57.511Z,193.1769
2019-05-11T01:15:07.206Z,192.8753
2019-05-11T01:15:26.599Z,192.4754
2019-05-11T01:15:36.335Z,192.7004
2019-05-11T01:15:46.117Z,192.3504
2019-05-11T01:15:55.787Z,192.5004
2019-05-11T01:16:05.448Z,188.3504
2019-05-11T01:16:16.353Z,164.0004
2019-05-11T01:16:26.059Z,184.8346
2019-05-11T01:16:46.661Z,191.3743
2019-05-11T01:16:56.358Z,189.5502
2019-05-11T01:17:06.043Z,189.5254
2019-05-11T01:17:15.746Z,189.5004
2019-05-11T01:17:25.492Z,189.5506
2019-05-11T01:17:46.120Z,191.5014
2019-05-11T01:17:57.008Z,189.5755
2019-05-11T01:18:06.723Z,189.4005
2019-05-11T01:18:16.418Z,189.5754
2019-05-11T01:18:26.119Z,191.1993
2019-05-11T01:18:35.947Z,189.2504
2019-05-11T01:18:45.618Z,189.7507
2019-05-11T01:18:57.484Z,189.5004
2019-05-11T01:19:06.219Z,189.3004
2019-05-11T01:19:15.909Z,189.2759
2019-05-11T01:19:31.041Z,189.5754
2019-05-11T01:19:35.740Z,166.1004
2019-05-11T01:19:45.400Z,166.2254
2019-05-11T01:20:05.927Z,165.9254
2019-05-11T01:20:18.575Z,166.1254
2019-05-11T01:20:26.946Z,166.0004
2019-05-11T01:20:35.450Z,166.0004
2019-05-11T01:20:47.319Z,166.0508
2019-05-11T01:20:55.845Z,166.2014
2019-05-11T01:21:05.601Z,165.7505
2019-05-11T01:21:17.517Z,166.1003
2019-05-11T01:21:27.200Z,165.9758
2019-05-11T01:21:36.879Z,166.2754
2019-05-11T01:21:57.417Z,165.7001
2019-05-11T01:22:07.097Z,166.0754
2019-05-11T01:22:16.769Z,166.2754
2019-05-11T01:22:26.476Z,165.9255
2019-05-11T01:22:36.166Z,167.8753
2019-05-11T01:22:45.866Z,166.3754
2019-05-11T01:22:55.739Z,166.0504
2019-05-11T01:23:05.389Z,166.1755
2019-05-11T01:23:17.511Z,166.2754
2019-05-11T01:23:27.582Z,166.4504
2019-05-11T01:23:37.316Z,165.8755
2019-05-11T01:23:46.999Z,166.0004
2019-05-11T01:23:57.705Z,166.0255
2019-05-11T01:24:07.461Z,165.9254
2019-05-11T01:24:17.149Z,165.8003
2019-05-11T01:24:26.846Z,166.5254
2019-05-11T01:24:35.580Z,168.3753
2019-05-11T01:24:56.165Z,249.8754
2019-05-11T01:25:05.859Z,250.5004
2019-05-11T01:25:15.607Z,249.7754
2019-05-11T01:25:27.505Z,251.7004
2019-05-11T01:25:37.237Z,254.5503
2019-05-11T01:25:45.946Z,254.5005
2019-05-11T01:25:55.646Z,257.9496
2019-05-11T01:26:10.755Z,254.6756
2019-05-11T01:26:15.460Z,254.9005
2019-05-11T01:26:26.326Z,254.8754
2019-05-11T01:26:36.004Z,255.8004
2019-05-11T01:26:46.679Z,259.9254
2019-05-11T01:26:56.348Z,259.9008
2019-05-11T01:27:05.653Z,259.8003
2019-05-11T01:27:17.354Z,259.9004
2019-05-11T01:27:27.032Z,261.8529
2019-05-11T01:27:36.707Z,260.3504
2019-05-11T01:27:46.371Z,263.4771
2019-05-11T01:27:56.049Z,260.9254
2019-05-11T01:28:05.773Z,260.9254
2019-05-11T01:28:15.440Z,261.1755
2019-05-11T01:28:27.332Z,260.8506
2019-05-11T01:28:37.092Z,261.0253
2019-05-11T01:28:52.325Z,260.8753
2019-05-11T01:28:56.785Z,260.4504
2019-05-11T01:29:08.514Z,261.3005
2019-05-11T01:29:16.030Z,261.2254
2019-05-11T01:29:25.682Z,260.9254
2019-05-11T01:29:35.388Z,262.3973
2019-05-11T01:29:46.069Z,261.3504
2019-05-11T01:29:55.757Z,264.1016
2019-05-11T01:30:05.413Z,260.7504
2019-05-11T01:30:17.240Z,261.2004
2019-05-11T01:30:26.903Z,261.8776
2019-05-11T01:30:38.749Z,260.9754
2019-05-11T01:30:45.487Z,260.8504
2019-05-11T01:30:57.341Z,261.3503
2019-05-11T01:31:07.029Z,261.4249
2019-05-11T01:31:16.689Z,261.8257
2019-05-11T01:31:37.237Z,261.2754
2019-05-11T01:31:46.919Z,261.4003
2019-05-11T01:31:56.577Z,260.9254
2019-05-11T01:32:06.249Z,261.2746
2019-05-11T01:32:15.957Z,260.8504
2019-05-11T01:32:25.649Z,261.4504
2019-05-11T01:32:48.166Z,260.9504
2019-05-11T01:32:55.682Z,261.1004
2019-05-11T01:33:05.362Z,261.4753
2019-05-11T01:33:16.070Z,261.5255
2019-05-11T01:33:25.806Z,261.3005
2019-05-11T01:33:35.528Z,261.5254
2019-05-11T01:33:47.386Z,261.3505
2019-05-11T01:33:57.038Z,261.1004
2019-05-11T01:34:06.746Z,261.1754
2019-05-11T01:34:16.417Z,261.3254
2019-05-11T01:34:26.112Z,261.0754
2019-05-11T01:34:35.772Z,260.8504
2019-05-11T01:34:45.480Z,261.0004
2019-05-11T01:35:06.631Z,260.6504
2019-05-11T01:35:16.571Z,261.1004
2019-05-11T01:35:26.293Z,261.1004
2019-05-11T01:35:35.962Z,260.6504
2019-05-11T01:35:45.640Z,261.4502
2019-05-11T01:35:57.478Z,261.2004
2019-05-11T01:36:15.802Z,261.4254
2019-05-11T01:36:25.465Z,261.4255
2019-05-11T01:36:37.320Z,260.7254
2019-05-11T01:36:47.028Z,261.3253
2019-05-11T01:36:56.713Z,261.2248
2019-05-11T01:37:06.395Z,262.6282
2019-05-11T01:37:17.214Z,261.3255
2019-05-11T01:37:26.921Z,260.7254
2019-05-11T01:37:36.631Z,261.3504
2019-05-11T01:37:46.387Z,261.3502
2019-05-11T01:37:56.079Z,261.0254
2019-05-11T01:38:05.768Z,261.3504
2019-05-11T01:38:15.479Z,261.6993
2019-05-11T01:38:36.115Z,261.0753
2019-05-11T01:38:45.808Z,261.1505
2019-05-11T01:38:56.483Z,261.3504
2019-05-11T01:39:06.247Z,261.1004
2019-05-11T01:39:16.999Z,260.8254
2019-05-11T01:39:25.569Z,261.3004
2019-05-11T01:39:37.458Z,263.9257
2019-05-11T01:39:47.174Z,261.4754
2019-05-11T01:39:56.710Z,261.3494
2019-05-11T01:40:06.442Z,261.3754
2019-05-11T01:40:16.124Z,262.5283
2019-05-11T01:40:25.812Z,260.8504
2019-05-11T01:40:37.509Z,260.8004
2019-05-11T01:40:58.097Z,261.2254
2019-05-11T01:40:59.035Z,261.7513
2019-05-11T01:41:06.802Z,261.1504
2019-05-11T01:41:16.520Z,261.2005
2019-05-11T01:41:26.202Z,260.9754
2019-05-11T01:41:37.695Z,260.8754
2019-05-11T01:41:47.402Z,260.8758
2019-05-11T01:41:57.158Z,261.0505
2019-05-11T01:42:06.828Z,263.7265
2019-05-11T01:42:16.522Z,261.0003
2019-05-11T01:42:26.218Z,261.0254
2019-05-11T01:42:35.961Z,261.4753
2019-05-11T01:42:57.790Z,261.2257
2019-05-11T01:43:07.468Z,261.4253
2019-05-11T01:43:17.169Z,261.1251
2019-05-11T01:43:26.858Z,261.3003
2019-05-11T01:43:36.617Z,261.2254
2019-05-11T01:43:47.318Z,261.1004
2019-05-11T01:43:57.008Z,261.3754
2019-05-11T01:44:06.717Z,261.5006
2019-05-11T01:44:16.404Z,261.1755
2019-05-11T01:44:26.469Z,261.0254
2019-05-11T01:44:36.411Z,263.9264
2019-05-11T01:44:46.200Z,261.3753
2019-05-11T01:44:55.716Z,260.9504
2019-05-11T01:45:05.418Z,261.6504
2019-05-11T01:45:17.264Z,261.6006
2019-05-11T01:45:25.993Z,261.2753
2019-05-11T01:45:35.688Z,261.2255
2019-05-11T01:45:45.397Z,261.2255
2019-05-11T01:45:57.287Z,262.9475
2019-05-11T01:46:06.968Z,261.1754
2019-05-11T01:46:16.674Z,261.3752
2019-05-11T01:46:26.343Z,261.2504
2019-05-11T01:46:36.037Z,260.9504
2019-05-11T01:46:45.706Z,261.1254
2019-05-11T01:46:55.419Z,260.9754
2019-05-11T01:47:07.305Z,264.3003
2019-05-11T01:47:17.000Z,261.2755
2019-05-11T01:47:26.688Z,261.0751
2019-05-11T01:47:36.378Z,261.0754
2019-05-11T01:47:46.086Z,261.2004
2019-05-11T01:47:55.830Z,264.1750
2019-05-11T01:48:05.532Z,260.8504
2019-05-11T01:48:17.439Z,261.2503
2019-05-11T01:48:27.138Z,261.1254
2019-05-11T01:48:36.908Z,261.0754
2019-05-11T01:48:45.596Z,261.3503
2019-05-11T01:48:57.494Z,261.2754
2019-05-11T01:49:07.197Z,261.3254
2019-05-11T01:49:16.896Z,261.9263
2019-05-11T01:49:26.598Z,261.4010
2019-05-11T01:49:36.289Z,261.2254
2019-05-11T01:49:45.964Z,261.0765
2019-05-11T01:49:55.655Z,263.8503
2019-05-11T01:50:05.374Z,261.2754
2019-05-11T01:50:17.246Z,263.9501
2019-05-11T01:50:25.968Z,261.0754
2019-05-11T01:50:35.623Z,261.3254
2019-05-11T01:50:47.518Z,261.6005
2019-05-11T01:50:57.239Z,261.3003
2019-05-11T01:51:06.984Z,261.2505
2019-05-11T01:51:16.720Z,261.4004
2019-05-11T01:51:37.340Z,260.9254
2019-05-11T01:51:55.754Z,261.3755
2019-05-11T01:52:05.586Z,261.5254
2019-05-11T01:52:17.467Z,261.2754
2019-05-11T01:52:27.169Z,261.3007
2019-05-11T01:52:36.874Z,260.9502
2019-05-11T01:52:46.758Z,260.9254
2019-05-11T01:52:56.466Z,260.8254
2019-05-11T01:53:07.385Z,261.6002
2019-05-11T01:53:17.100Z,261.3003
2019-05-11T01:53:26.805Z,261.0504
2019-05-11T01:53:36.552Z,261.1254
2019-05-11T01:53:48.121Z,261.2754
2019-05-11T01:53:55.723Z,262.9024
2019-05-11T01:54:05.394Z,261.0755
2019-05-11T01:54:17.303Z,264.6738
2019-05-11T01:54:27.012Z,260.0254
2019-05-11T01:54:36.718Z,261.8510
2019-05-11T01:54:46.397Z,261.4753
2019-05-11T01:54:56.076Z,261.4004
2019-05-11T01:55:05.816Z,261.5004
2019-05-11T01:55:16.718Z,260.7254
2019-05-11T01:55:27.384Z,262.8727
2019-05-11T01:55:38.114Z,261.4254
2019-05-11T01:55:46.617Z,261.2504
2019-05-11T01:55:56.319Z,262.5479
2019-05-11T01:56:07.199Z,261.6254
2019-05-11T01:56:16.927Z,261.4003
2019-05-11T01:56:25.969Z,261.1004
2019-05-11T01:56:35.659Z,260.4754
2019-05-11T01:56:56.216Z,261.2014
2019-05-11T01:57:05.944Z,260.9504
2019-05-11T01:57:17.109Z,261.2005
2019-05-11T01:57:26.807Z,260.8254
2019-05-11T01:57:36.533Z,261.5753
2019-05-11T01:57:46.214Z,261.2504
2019-05-11T01:57:56.901Z,261.1754
2019-05-11T01:58:05.394Z,261.0504
2019-05-11T01:58:17.257Z,263.2237
2019-05-11T01:58:26.938Z,261.0254
2019-05-11T01:58:35.444Z,261.4254
2019-05-11T01:58:47.355Z,260.7504
2019-05-11T01:58:57.007Z,261.1255
2019-05-11T01:59:06.692Z,261.2752
2019-05-11T01:59:16.356Z,260.5753
2019-05-11T01:59:26.085Z,261.4004
2019-05-11T01:59:37.004Z,261.2503
2019-05-11T01:59:45.730Z,261.0504
2019-05-11T01:59:55.419Z,261.1754
2019-05-11T02:00:07.329Z,262.2236
2019-05-11T02:00:17.016Z,261.1754
2019-05-11T02:00:26.677Z,261.1254
2019-05-11T02:00:36.367Z,261.4504
2019-05-11T02:00:46.060Z,261.1254
2019-05-11T02:00:57.757Z,261.3504
2019-05-11T02:01:07.449Z,261.0254
2019-05-11T02:01:17.169Z,262.0743
2019-05-11T02:01:26.894Z,261.2006
2019-05-11T02:01:36.567Z,261.1254
2019-05-11T02:01:46.267Z,261.2504
2019-05-11T02:01:55.942Z,261.1004
2019-05-11T02:02:05.659Z,261.2754
2019-05-11T02:02:17.497Z,261.1754
2019-05-11T02:02:27.266Z,261.4256
2019-05-11T02:02:36.987Z,261.2254
2019-05-11T02:02:46.696Z,261.4005
2019-05-11T02:02:56.357Z,260.9254
2019-05-11T02:03:06.019Z,261.3255